createdAt,value
2024-04-12T00:01:48.247Z,7.30
2024-04-12T00:04:17.687Z,7.30
2024-04-12T00:06:46.144Z,7.30
2024-04-12T00:09:13.774Z,7.20
2024-04-12T00:11:41.550Z,7.20
2024-04-12T00:14:12.417Z,7.10
2024-04-12T00:16:39.940Z,7.10
2024-04-12T00:19:07.582Z,7.10
2024-04-12T00:21:35.155Z,7.10
2024-04-12T00:24:02.608Z,7.10
2024-04-12T00:26:30.161Z,7.10
2024-04-12T00:28:57.586Z,7.00
2024-04-12T00:31:27.815Z,7.00
2024-04-12T00:33:55.427Z,7.00
2024-04-12T00:36:23.329Z,6.90
2024-04-12T00:38:51.217Z,6.90
2024-04-12T00:41:18.680Z,6.80
2024-04-12T00:43:51.026Z,6.80
2024-04-12T00:46:21.636Z,6.80
2024-04-12T00:48:52.736Z,6.70
2024-04-12T00:51:25.106Z,6.80
2024-04-12T00:53:56.128Z,6.90
2024-04-12T00:56:24.365Z,7.00
2024-04-12T00:58:51.829Z,7.00
2024-04-12T01:01:19.636Z,7.10
2024-04-12T01:03:50.777Z,7.00
2024-04-12T01:06:20.081Z,7.00
2024-04-12T01:08:48.171Z,6.90
2024-04-12T01:11:16.466Z,6.90
2024-04-12T01:13:44.197Z,6.80
2024-04-12T01:16:11.856Z,6.70
2024-04-12T01:18:39.501Z,6.60
2024-04-12T01:21:09.746Z,6.60
2024-04-12T01:23:38.744Z,6.50
2024-04-12T01:26:08.899Z,6.50
2024-04-12T01:28:36.259Z,6.40
2024-04-12T01:31:04.138Z,6.30
2024-04-12T01:33:31.602Z,6.30
2024-04-12T01:35:59.381Z,6.20
2024-04-12T01:38:26.770Z,6.20
2024-04-12T01:40:54.232Z,6.10
2024-04-12T01:43:25.586Z,6.10
2024-04-12T01:45:53.190Z,6.10
2024-04-12T01:48:20.766Z,6.00
2024-04-12T01:50:48.306Z,6.00
2024-04-12T01:53:15.848Z,6.00
2024-04-12T01:55:43.294Z,6.20
2024-04-12T01:58:10.675Z,6.40
2024-04-12T02:00:40.881Z,6.50
2024-04-12T02:03:08.325Z,6.50
2024-04-12T02:05:36.024Z,6.50
2024-04-12T02:08:06.318Z,6.40
2024-04-12T02:10:33.749Z,6.40
2024-04-12T02:13:01.352Z,6.50
2024-04-12T02:15:29.084Z,6.60
2024-04-12T02:17:59.385Z,6.50
2024-04-12T02:20:27.284Z,6.60
2024-04-12T02:25:53.847Z,6.60
2024-04-12T02:28:24.939Z,6.50
2024-04-12T02:30:53.029Z,6.60
2024-04-12T02:33:28.428Z,6.40
2024-04-12T02:36:04.746Z,6.40
2024-04-12T02:38:32.555Z,6.40
2024-04-12T02:41:00.055Z,6.30
2024-04-12T02:43:27.792Z,6.30
2024-04-12T02:45:56.592Z,6.20
2024-04-12T02:48:26.784Z,6.20
2024-04-12T02:50:56.231Z,6.20
2024-04-12T02:53:27.893Z,6.10
2024-04-12T02:55:59.112Z,6.10
2024-04-12T02:58:26.941Z,6.20
2024-04-12T03:00:54.392Z,6.30
2024-04-12T03:03:22.029Z,6.30
2024-04-12T03:05:59.447Z,6.40
2024-04-12T03:08:27.055Z,6.50
2024-04-12T03:10:54.597Z,6.50
2024-04-12T03:13:22.014Z,6.50
2024-04-12T03:15:49.472Z,6.60
2024-04-12T03:18:17.015Z,6.70
2024-04-12T03:20:44.611Z,6.70
2024-04-12T03:23:14.644Z,6.70
2024-04-12T03:25:42.180Z,6.70
2024-04-12T03:28:09.545Z,6.80
2024-04-12T03:30:40.449Z,6.80
2024-04-12T03:33:08.127Z,6.80
2024-04-12T03:35:35.674Z,6.80
2024-04-12T03:38:03.297Z,6.90
2024-04-12T03:40:33.427Z,6.90
2024-04-12T03:43:00.961Z,6.90
2024-04-12T03:45:28.320Z,6.90
2024-04-12T03:47:56.000Z,6.90
2024-04-12T03:50:23.573Z,6.90
2024-04-12T03:52:51.093Z,6.90
2024-04-12T03:55:18.618Z,6.90
2024-04-12T03:57:48.626Z,6.80
2024-04-12T04:00:16.258Z,6.90
2024-04-12T04:02:43.737Z,6.90
2024-04-12T04:05:11.469Z,6.90
2024-04-12T04:07:38.921Z,6.90
2024-04-12T04:10:06.509Z,6.90
2024-04-12T04:12:33.972Z,6.90
2024-04-12T04:15:04.437Z,6.90
2024-04-12T04:17:32.922Z,6.90
2024-04-12T04:20:00.820Z,6.90
2024-04-12T04:22:28.256Z,6.80
2024-04-12T04:24:55.764Z,6.80
2024-04-12T04:27:23.976Z,6.80
2024-04-12T04:29:51.871Z,6.80
2024-04-12T04:32:22.314Z,6.80
2024-04-12T04:34:50.017Z,6.80
2024-04-12T04:37:22.828Z,7.00
2024-04-12T04:39:51.339Z,7.10
2024-04-12T04:42:18.799Z,7.10
2024-04-12T04:44:46.503Z,7.30
2024-04-12T04:47:14.197Z,7.40
2024-04-12T04:49:44.781Z,7.50
2024-04-12T04:52:12.228Z,7.50
2024-04-12T04:54:39.959Z,7.60
2024-04-12T04:57:07.537Z,7.70
2024-04-12T04:59:35.010Z,7.80
2024-04-12T05:02:02.732Z,7.90
2024-04-12T05:04:30.244Z,8.00
2024-04-12T05:07:00.763Z,8.10
2024-04-12T05:09:29.605Z,8.20
2024-04-12T05:12:01.291Z,8.40
2024-04-12T05:14:29.634Z,8.50
2024-04-12T05:16:57.101Z,8.60
2024-04-12T05:19:24.509Z,8.80
2024-04-12T05:21:51.877Z,8.90
2024-04-12T05:24:22.000Z,9.00
2024-04-12T05:26:49.421Z,9.10
2024-04-12T05:29:17.159Z,9.30
2024-04-12T05:31:44.520Z,9.30
2024-04-12T05:34:12.034Z,9.40
2024-04-12T05:36:39.772Z,9.50
2024-04-12T05:39:07.342Z,9.70
2024-04-12T05:41:38.275Z,9.90
2024-04-12T05:44:06.368Z,10.00
2024-04-12T05:46:35.067Z,10.20
2024-04-12T05:49:02.738Z,10.30
2024-04-12T05:51:30.424Z,10.50
2024-04-12T05:53:57.804Z,10.70
2024-04-12T05:56:25.363Z,10.80
2024-04-12T05:58:55.779Z,10.90
2024-04-12T06:01:23.197Z,11.00
2024-04-12T06:03:54.438Z,11.10
2024-04-12T06:06:24.777Z,11.20
2024-04-12T06:08:53.023Z,11.40
2024-04-12T06:11:22.296Z,11.40
2024-04-12T06:13:49.807Z,11.60
2024-04-12T06:16:20.215Z,11.70
2024-04-12T06:18:49.979Z,11.90
2024-04-12T06:21:17.781Z,12.00
2024-04-12T06:23:45.492Z,12.10
2024-04-12T06:26:12.961Z,12.40
2024-04-12T06:28:40.508Z,12.60
2024-04-12T06:31:08.074Z,12.90
2024-04-12T06:33:38.351Z,13.20
2024-04-12T06:36:07.658Z,13.40
2024-04-12T06:38:36.306Z,13.60
2024-04-12T06:41:04.274Z,13.70
2024-04-12T06:43:32.321Z,13.80
2024-04-12T06:46:00.419Z,13.90
2024-04-12T06:48:28.298Z,14.20
2024-04-12T06:50:59.120Z,14.40
2024-04-12T06:53:27.067Z,14.80
2024-04-12T06:55:59.227Z,15.10
2024-04-12T06:58:27.027Z,15.50
2024-04-12T07:00:59.286Z,15.80
2024-04-12T07:03:27.035Z,16.20
2024-04-12T07:05:57.165Z,16.30
2024-04-12T07:08:25.099Z,16.50
2024-04-12T07:10:52.458Z,16.50
2024-04-12T07:13:22.194Z,16.60
2024-04-12T07:15:49.770Z,16.80
2024-04-12T07:18:17.631Z,17.20
2024-04-12T07:20:45.238Z,17.50
2024-04-12T07:23:15.867Z,17.80
2024-04-12T07:25:43.345Z,18.10
2024-04-12T07:28:10.738Z,18.20
2024-04-12T07:30:39.674Z,18.60
2024-04-12T07:33:07.572Z,18.80
2024-04-12T07:35:35.698Z,18.90
2024-04-12T07:38:04.974Z,18.70
2024-04-12T07:40:37.939Z,18.70
2024-04-12T07:43:05.841Z,18.90
2024-04-12T07:45:33.271Z,19.20
2024-04-12T07:48:00.683Z,19.40
2024-04-12T07:50:30.727Z,19.70
2024-04-12T07:53:00.028Z,19.80
2024-04-12T07:55:27.373Z,19.80
2024-04-12T07:57:57.702Z,19.70
2024-04-12T08:00:25.656Z,19.70
2024-04-12T08:02:53.043Z,19.60
2024-04-12T08:05:20.882Z,19.80
2024-04-12T08:07:48.456Z,20.10
2024-04-12T08:10:16.020Z,20.60
2024-04-12T08:12:43.719Z,20.90
2024-04-12T08:15:14.011Z,21.20
2024-04-12T08:17:42.094Z,21.50
2024-04-12T08:20:10.511Z,21.80
2024-04-12T08:22:38.001Z,22.20
2024-04-12T08:25:06.015Z,22.40
2024-04-12T08:27:33.770Z,22.70
2024-04-12T08:30:01.447Z,22.80
2024-04-12T08:32:31.699Z,22.90
2024-04-12T08:34:59.815Z,22.90
2024-04-12T08:37:27.817Z,23.10
2024-04-12T08:39:55.223Z,23.20
2024-04-12T08:42:23.461Z,23.30
2024-04-12T08:44:52.129Z,23.40
2024-04-12T08:47:19.867Z,23.40
2024-04-12T08:49:52.743Z,23.60
2024-04-12T08:52:22.283Z,23.70
2024-04-12T08:54:51.033Z,23.80
2024-04-12T08:57:18.839Z,23.80
2024-04-12T08:59:46.441Z,23.70
2024-04-12T09:02:14.513Z,23.80
2024-04-12T09:04:43.968Z,24.00
2024-04-12T09:07:14.983Z,24.00
2024-04-12T09:09:42.480Z,24.00
2024-04-12T09:12:10.373Z,24.20
2024-04-12T09:14:38.153Z,24.10
2024-04-12T09:17:06.252Z,24.20
2024-04-12T09:19:33.975Z,24.40
2024-04-12T09:22:01.557Z,24.50
2024-04-12T09:24:32.062Z,24.70
2024-04-12T09:27:02.595Z,24.90
2024-04-12T09:29:30.188Z,25.10
2024-04-12T09:31:58.543Z,25.00
2024-04-12T09:34:27.408Z,25.20
2024-04-12T09:36:58.034Z,25.20
2024-04-12T09:39:26.542Z,25.10
2024-04-12T09:41:57.466Z,25.10
2024-04-12T09:44:26.697Z,25.20
2024-04-12T09:46:59.369Z,25.30
2024-04-12T09:49:28.082Z,25.40
2024-04-12T09:51:58.155Z,25.40
2024-04-12T09:54:27.068Z,25.70
2024-04-12T09:57:00.586Z,25.50
2024-04-12T09:59:29.779Z,25.40
2024-04-12T10:01:57.824Z,25.20
2024-04-12T10:04:26.172Z,24.80
2024-04-12T10:06:54.716Z,24.70
2024-04-12T10:09:24.826Z,24.80
2024-04-12T10:35:35.377Z,27.20
2024-04-12T10:38:05.907Z,27.20
2024-04-12T10:40:36.015Z,27.30
2024-04-12T10:43:04.374Z,27.40
2024-04-12T10:45:32.493Z,27.20
2024-04-12T10:48:03.441Z,26.90
2024-04-12T10:50:40.150Z,26.90
2024-04-12T10:53:12.965Z,27.20
2024-04-12T10:55:46.517Z,27.50
2024-04-12T10:58:22.442Z,27.80
2024-04-12T11:00:51.562Z,27.50
2024-04-12T11:03:25.711Z,27.50
2024-04-12T11:05:56.837Z,27.60
2024-04-12T11:08:27.879Z,27.50
2024-04-12T11:10:55.978Z,27.80
2024-04-12T11:13:26.534Z,27.90
2024-04-12T11:15:56.972Z,27.90
2024-04-12T11:18:34.265Z,27.70
2024-04-12T11:21:11.569Z,27.40
2024-04-12T11:23:45.914Z,27.50
2024-04-12T11:26:23.355Z,27.70
2024-04-12T11:29:16.428Z,27.80
2024-04-12T11:31:47.988Z,27.90
2024-04-12T11:34:40.800Z,28.20
2024-04-12T11:39:44.307Z,28.60
2024-04-12T11:42:17.100Z,28.70
2024-04-12T11:45:02.511Z,28.60
2024-04-12T11:47:32.463Z,28.50
2024-04-12T11:50:00.359Z,28.20
2024-04-12T11:52:32.248Z,28.30
2024-04-12T11:55:03.681Z,27.80
2024-04-12T11:57:31.375Z,27.40
2024-04-12T11:59:59.027Z,27.30
2024-04-12T12:59:51.553Z,27.80
2024-04-12T13:02:19.195Z,27.70
2024-04-12T13:04:48.075Z,27.40
2024-04-12T13:07:18.506Z,27.00
2024-04-12T13:09:46.044Z,26.60
2024-04-12T13:12:13.534Z,26.50
2024-04-12T13:14:41.647Z,26.40
2024-04-12T13:17:11.823Z,26.20
2024-04-12T13:19:39.524Z,26.10
2024-04-12T13:22:07.095Z,26.00
2024-04-12T13:24:34.496Z,26.00
2024-04-12T13:27:02.108Z,26.00
2024-04-12T13:29:29.425Z,26.00
2024-04-12T13:31:56.936Z,25.70
2024-04-12T13:34:27.178Z,25.20
2024-04-12T13:36:54.826Z,24.80
2024-04-12T13:39:23.669Z,24.70
2024-04-12T13:41:51.308Z,24.70
2024-04-12T13:44:18.991Z,24.90
2024-04-12T13:46:47.341Z,25.20
2024-04-12T13:49:16.068Z,25.50
2024-04-12T13:51:46.495Z,25.40
2024-04-12T13:54:14.057Z,25.20
2024-04-12T13:56:41.812Z,25.10
2024-04-12T13:59:09.403Z,25.10
2024-04-12T14:01:38.354Z,24.80
2024-04-12T14:04:06.319Z,24.70
2024-04-12T14:06:36.485Z,24.60
2024-04-12T14:09:09.179Z,24.50
2024-04-12T14:11:37.036Z,24.20
2024-04-12T14:14:04.417Z,24.00
2024-04-12T14:16:32.320Z,23.80
2024-04-12T14:18:59.859Z,23.80
2024-04-12T14:21:27.374Z,23.70
2024-04-12T14:23:55.519Z,23.40
2024-04-12T14:26:25.704Z,23.10
2024-04-12T14:28:53.185Z,22.80
2024-04-12T14:31:20.550Z,22.80
2024-04-12T14:33:48.089Z,22.60
2024-04-12T14:36:15.699Z,22.50
2024-04-12T14:38:43.169Z,22.40
2024-04-12T14:41:10.575Z,22.40
2024-04-12T14:43:40.641Z,22.30
2024-04-12T14:46:08.160Z,22.20
2024-04-12T14:48:38.581Z,22.00
2024-04-12T14:51:06.482Z,21.90
2024-04-12T14:53:34.113Z,21.80
2024-04-12T14:56:01.807Z,21.80
2024-04-12T14:58:29.345Z,21.80
2024-04-12T15:00:59.441Z,21.70
2024-04-12T15:03:27.459Z,21.60
2024-04-12T15:05:55.043Z,21.60
2024-04-12T15:08:22.566Z,21.60
2024-04-12T15:10:50.118Z,21.50
2024-04-12T15:13:17.681Z,21.40
2024-04-12T15:15:45.088Z,21.30
2024-04-12T15:18:15.317Z,21.20
2024-04-12T15:20:42.779Z,21.10
2024-04-12T15:23:10.159Z,21.00
2024-04-12T15:25:37.932Z,21.00
2024-04-12T15:28:05.694Z,21.00
2024-04-12T15:30:33.128Z,20.90
2024-04-12T15:33:00.619Z,20.80
2024-04-12T15:35:30.855Z,20.80
2024-04-12T15:37:58.311Z,20.70
2024-04-12T15:40:35.617Z,20.60
2024-04-12T15:43:03.007Z,20.60
2024-04-12T15:45:30.593Z,20.50
2024-04-12T15:47:58.146Z,20.50
2024-04-12T15:50:25.623Z,20.40
2024-04-12T15:52:55.739Z,20.40
2024-04-12T15:55:23.093Z,20.40
2024-04-12T15:57:50.572Z,20.40
2024-04-12T16:00:34.292Z,20.40
2024-04-12T16:03:02.341Z,20.30
2024-04-12T16:05:30.330Z,20.30
2024-04-12T16:08:00.530Z,20.20
2024-04-12T16:10:29.895Z,20.10
2024-04-12T16:12:57.500Z,20.10
2024-04-12T16:15:25.092Z,20.10
2024-04-12T16:17:52.715Z,20.10
2024-04-12T16:20:20.346Z,20.00
2024-04-12T16:22:47.694Z,20.10
2024-04-12T16:25:17.908Z,20.00
2024-04-12T16:27:45.378Z,20.00
2024-04-12T16:30:13.012Z,20.00
2024-04-12T16:32:40.594Z,19.90
2024-04-12T16:35:08.322Z,19.90
2024-04-12T16:37:35.911Z,19.80
2024-04-12T16:40:03.673Z,19.80
2024-04-12T16:42:33.812Z,19.70
2024-04-12T16:45:01.368Z,19.60
2024-04-12T16:47:29.104Z,19.60
2024-04-12T16:49:57.038Z,19.50
2024-04-12T16:52:24.563Z,19.40
2024-04-12T16:54:52.381Z,19.30
2024-04-12T16:57:20.088Z,19.20
2024-04-12T16:59:50.606Z,19.10
2024-04-12T17:02:18.375Z,18.90
2024-04-12T17:04:46.294Z,18.80
2024-04-12T17:07:13.674Z,18.60
2024-04-12T17:09:41.603Z,18.50
2024-04-12T17:12:10.008Z,18.30
2024-04-12T17:14:37.464Z,18.10
2024-04-12T17:17:07.803Z,18.00
2024-04-12T17:19:35.302Z,17.80
2024-04-12T17:22:02.669Z,17.60
2024-04-12T17:24:30.337Z,17.50
2024-04-12T17:26:57.859Z,17.40
2024-04-12T17:29:32.023Z,17.20
2024-04-12T17:32:00.111Z,17.10
2024-04-12T17:34:30.286Z,16.90
2024-04-12T17:36:57.854Z,16.70
2024-04-12T17:39:25.674Z,16.60
2024-04-12T17:41:53.414Z,16.50
2024-04-12T17:44:21.285Z,16.40
2024-04-12T17:46:48.857Z,16.30
2024-04-12T17:49:16.547Z,16.20
2024-04-12T17:51:46.725Z,16.00
2024-04-12T17:54:14.227Z,16.00
2024-04-12T17:56:41.598Z,15.80
2024-04-12T17:59:09.254Z,15.70
2024-04-12T18:01:36.935Z,15.50
2024-04-12T18:04:04.542Z,15.40
2024-04-12T18:06:32.035Z,15.30
2024-04-12T18:09:02.153Z,15.20
2024-04-12T18:11:29.869Z,15.20
2024-04-12T18:13:57.724Z,15.10
2024-04-12T18:16:25.358Z,15.00
2024-04-12T18:18:53.161Z,14.90
2024-04-12T18:21:21.042Z,14.80
2024-04-12T18:23:48.580Z,14.70
2024-04-12T18:26:18.785Z,14.60
2024-04-12T18:28:46.309Z,14.50
2024-04-12T18:31:13.641Z,14.40
2024-04-12T18:33:41.368Z,14.30
2024-04-12T18:36:09.568Z,14.30
2024-04-12T18:38:37.098Z,14.30
2024-04-12T18:41:04.824Z,14.30
2024-04-12T18:43:34.913Z,14.30
2024-04-12T18:46:02.385Z,14.30
2024-04-12T18:48:33.281Z,14.30
2024-04-12T18:51:00.893Z,14.30
2024-04-12T18:53:28.495Z,14.30
2024-04-12T18:55:55.963Z,14.20
2024-04-12T18:58:23.537Z,14.20
2024-04-12T19:00:53.717Z,14.10
2024-04-12T19:03:21.583Z,14.00
2024-04-12T19:05:49.130Z,14.00
2024-04-12T19:08:16.790Z,14.00
2024-04-12T19:10:44.568Z,14.00
2024-04-12T19:13:12.190Z,14.00
2024-04-12T19:15:39.737Z,14.00
2024-04-12T19:18:10.379Z,13.90
2024-04-12T19:20:41.363Z,13.90
2024-04-12T19:23:09.078Z,13.80
2024-04-12T19:25:43.134Z,13.80
2024-04-12T19:28:10.804Z,13.70
2024-04-12T19:30:38.602Z,13.60
2024-04-12T19:33:06.340Z,13.60
2024-04-12T19:35:38.452Z,13.50
2024-04-12T19:38:07.844Z,13.50
2024-04-12T19:40:38.590Z,13.50
2024-04-12T19:43:06.273Z,13.50
2024-04-12T19:45:46.110Z,13.60
2024-04-12T19:48:17.034Z,13.50
2024-04-12T19:50:48.002Z,13.50
2024-04-12T19:53:25.841Z,13.50
2024-04-12T19:55:57.460Z,13.50
2024-04-12T19:58:26.213Z,13.40
2024-04-12T20:00:57.196Z,13.50
2024-04-12T20:03:31.829Z,13.50
2024-04-12T20:06:03.039Z,13.60
2024-04-12T20:08:32.895Z,13.60
2024-04-12T20:11:05.748Z,13.60
2024-04-12T20:13:48.879Z,13.80
2024-04-12T20:16:18.402Z,13.80
2024-04-12T20:18:48.471Z,13.90
2024-04-12T20:21:23.027Z,14.00
2024-04-12T20:24:13.755Z,14.10
2024-04-12T20:26:43.552Z,14.00
2024-04-12T20:29:11.678Z,13.90
2024-04-12T20:31:39.774Z,13.90
2024-04-12T20:34:08.826Z,13.90
2024-04-12T20:36:41.118Z,13.80
2024-04-12T20:39:15.548Z,13.80
2024-04-12T20:41:51.933Z,14.50
2024-04-12T20:44:25.061Z,13.80
2024-04-12T20:46:57.339Z,14.00
2024-04-12T20:49:30.249Z,14.00
2024-04-12T20:52:00.861Z,13.90
2024-04-12T20:54:28.834Z,13.80
2024-04-12T20:57:04.195Z,13.90
2024-04-12T20:59:34.237Z,13.80
2024-04-12T21:02:02.279Z,13.80
2024-04-12T21:04:30.305Z,13.80
2024-04-12T21:07:00.814Z,13.80
2024-04-12T21:09:35.719Z,13.70
2024-04-12T21:12:05.421Z,13.70
2024-04-12T21:14:33.573Z,13.70
2024-04-12T21:17:01.619Z,13.70
2024-04-12T21:19:29.489Z,13.70
2024-04-12T21:49:55.056Z,13.40
2024-04-12T21:52:22.661Z,13.30
2024-04-12T21:54:50.428Z,13.20
2024-04-12T21:57:18.276Z,13.20
2024-04-12T21:59:45.946Z,13.20
2024-04-12T22:02:13.619Z,13.20
2024-04-12T22:04:41.653Z,13.20
2024-04-12T22:07:12.104Z,13.20
2024-04-12T22:09:39.889Z,13.20
2024-04-12T22:12:08.948Z,13.10
2024-04-12T22:14:36.857Z,13.20
2024-04-12T22:17:04.851Z,13.00
2024-04-12T22:19:32.485Z,13.00
2024-04-12T22:22:00.246Z,12.90
2024-04-12T22:24:31.012Z,12.80
2024-04-12T22:26:59.302Z,12.70
2024-04-12T22:29:26.852Z,12.70
2024-04-12T22:31:54.821Z,12.70
2024-04-12T22:34:22.822Z,12.60
2024-04-12T22:36:52.810Z,12.50
2024-04-12T22:39:21.091Z,12.50
2024-04-12T22:41:51.670Z,12.40
2024-04-12T22:44:19.363Z,12.40
2024-04-12T22:46:48.743Z,12.30
2024-04-12T22:49:16.548Z,12.20
2024-04-12T22:51:45.945Z,12.10
2024-04-12T22:54:13.922Z,12.10
2024-04-12T22:56:41.598Z,12.10
2024-04-12T22:59:13.132Z,12.00
2024-04-12T23:01:40.974Z,12.00
2024-04-12T23:04:08.426Z,12.00
2024-04-12T23:06:36.830Z,11.90
2024-04-12T23:09:04.904Z,11.80
2024-04-12T23:11:32.728Z,11.70
2024-04-12T23:14:01.085Z,11.60
2024-04-12T23:16:31.346Z,11.60
2024-04-12T23:18:58.896Z,11.50
2024-04-12T23:21:26.676Z,11.40
2024-04-12T23:23:54.225Z,11.30
2024-04-12T23:26:21.665Z,11.20
2024-04-12T23:28:49.267Z,11.20
2024-04-12T23:31:16.993Z,11.20
2024-04-12T23:33:47.339Z,11.20
2024-04-12T23:36:14.875Z,11.10
2024-04-12T23:38:42.512Z,11.10
2024-04-12T23:41:09.982Z,11.00
2024-04-12T23:43:37.539Z,11.00
2024-04-12T23:46:07.887Z,10.90
2024-04-12T23:48:35.382Z,10.90
2024-04-12T23:51:05.778Z,10.80
2024-04-12T23:53:33.159Z,10.80
2024-04-12T23:56:00.799Z,10.70
2024-04-12T23:58:28.295Z,10.60
